Saint Mawgan, United Kingdom

8:41 AM GMT on February 25, 2017 (GMT +0000)
Newquay | | Change Station

Elev 119 ft 50.42 °N, 5.05 °W | Updated 12 minutes ago

Mostly Cloudy
Mostly Cloudy
50.2 °F
Feels Like 50.2 °F
N
13.0
Wind Variable Wind from SSW
Gusts 19.0 mph

Today
High -- | Low -- °F
--% Chance of Precip.
Yesterday
High -- | Low -- °F
Precip. -- in
Pressure 29.92 in
Visibility 6.2 miles
Clouds Few 1400 ft
Mostly Cloudy 1800 ft
Overcast 2000 ft
Dew Point 44 °F
Humidity 80%
Rainfall 0.00 in
Snow Depth Not available.
7:11 AM 5:55 PM
Waning Crescent, 2% visible
METAR EGDR 250750Z 21021G33KT 9999 FEW014 BKN018 OVC020 10/05 Q1013 WHT TEMPO 8000 -RA SCT012 GRN
Pressure 29.92 in
Visibility 6.2 miles
Clouds Few 1400 ft
Mostly Cloudy 1800 ft
Overcast 2000 ft
Dew Point 44 °F
Humidity 80%
Rainfall 0.00 in
Snow Depth Not available.
7:11 AM 5:55 PM
Waning Crescent, 2% visible
METAR EGDR 250750Z 21021G33KT 9999 FEW014 BKN018 OVC020 10/05 Q1013 WHT TEMPO 8000 -RA SCT012 GRN

Get Your Daily Forecast Email!

Thanks for signing up!

Be on the lookout for a verification email in your inbox.

You'll start receiving the daily forecast at 8 AM.

×

10-Day Weather Forecast

×

Almanac

Astronomy

Feb. 25, 2017 Rise Set
Actual Time
Civil Twilight
Nautical Twilight
Astronomical Twilight
Moon
Length of Visible Light
Length of Day
Tomorrow will be .
, % of the Moon is Illuminated

Today's Extremes

Country Highs Country Lows

Community

WunderPhotos

Upload Photos

1,962,540 photos uploaded!

WunderBlog® & News

Nearby

Air Quality

  Air Quality AQ Index Pollutant
Not available.

Snow Depth

Station Depth Elevation

Earthquake Activity

City Distance Mag. Time & Date
Minimum magnitude displayed is 2.5.

Coastal Water Temperatures

Place Temperature

Stations

Nearby Weather Stations

Station Location Temp. Windchill Dew Point Humidity Wind Precip. Elev Updated Type